Data for 02/29/2008

Time Sea-Level Adjusted Pressure Absolute Pressure Temperature Relative Humidity Dew Point   
(mb) (inHg) (mb) (inHg) (C) (F) (%) (C) (F)
00:05 1021 30.15 850 25.1 0.5 32.8 81 -2.4 27.7
00:10 1021 30.15 850 25.1 0.5 32.9 81 -2.3 27.9
00:15 1021 30.15 850 25.1 0.7 33.2 80 -2.4 27.8
00:20 1021 30.15 850 25.1 0.7 33.2 80 -2.4 27.7
00:25 1021 30.15 850 25.1 0.3 32.5 81 -2.6 27.3
00:30 1021 30.15 850 25.1 0.1 32.1 82 -2.7 27.2
00:35 1021 30.15 850 25.1 0.2 32.3 81 -2.6 27.3
00:40 1021 30.15 850 25.1 -0 32 83 -2.6 27.4
00:45 1021 30.15 850 25.1 0.3 32.5 82 -2.5 27.6
00:50 1021 30.15 850 25.1 0.2 32.4 82 -2.5 27.6
00:55 1021 30.15 850 25.1 0.2 32.4 82 -2.5 27.5
01:00 1021 30.15 850 25.1 0.1 32.1 82 -2.6 27.2
01:05 1021 30.15 850 25.1 -0.2 31.6 83 -2.8 27
01:10 1021 30.15 850 25.1 -0.5 31.1 84 -2.9 26.7
01:15 1021 30.15 850 25.1 -0.8 30.6 84 -3.1 26.5
01:20 1021 30.15 850 25.1 -0.9 30.4 85 -3.2 26.3
01:25 1021 30.15 850 25.1 -1 30.3 85 -3.2 26.2
01:30 1021 30.15 850 25.1 -0.9 30.3 85 -3.2 26.3
01:35 1021 30.15 850 25.1 -0.8 30.6 84 -3.1 26.4
01:40 1021 30.15 850 25.1 -0.7 30.7 84 -3.1 26.4
01:45 1021 30.15 850 25.1 -0.7 30.7 84 -3.1 26.4
01:50 1020 30.12 850 25.1 -0.6 30.9 83 -3.1 26.4
01:55 1020 30.12 850 25.1 -0.4 31.2 83 -3 26.5
02:00 1021 30.15 850 25.1 -0.4 31.2 82 -3.1 26.4
02:05 1020 30.12 850 25.1 -0.5 31.2 82 -3.2 26.3
02:10 1020 30.12 850 25.1 -0.4 31.2 81 -3.2 26.2
02:15 1020 30.12 850 25.1 -0.5 31.1 81 -3.4 25.9
02:20 1020 30.12 850 25.1 -0.6 30.9 81 -3.5 25.7
02:25 1020 30.12 850 25.1 -0.7 30.7 81 -3.6 25.6
02:30 1020 30.12 850 25.1 -0.7 30.7 81 -3.6 25.4
02:35 1020 30.12 850 25.1 -0.5 31.1 80 -3.6 25.6
02:40 1020 30.12 850 25.1 -0.5 31.1 79 -3.7 25.4
02:45 1020 30.12 850 25.1 -0.6 31 79 -3.8 25.1
02:50 1021 30.15 850 25.1 -0.6 31 78 -3.9 25
02:55 1021 30.15 850 25.1 -0.7 30.7 78 -4.1 24.7
03:00 1020 30.12 850 25.1 -0.9 30.5 78 -4.1 24.5
03:05 1020 30.12 850 25.1 -1.3 29.6 80 -4.3 24.2
03:10 1020 30.12 850 25.1 -1.6 29.1 81 -4.5 24
03:15 1020 30.12 850 25.1 -1.5 29.3 81 -4.4 24.1
03:20 1021 30.15 850 25.1 -1.4 29.6 80 -4.4 24.2
03:25 1021 30.15 850 25.1 -1.3 29.7 80 -4.3 24.3
03:30 1020 30.12 850 25.1 -1.2 29.9 79 -4.3 24.3
03:35 1020 30.12 850 25.1 -1.1 30 79 -4.4 24.1
03:40 1020 30.12 850 25.1 -1.1 30 78 -4.5 24
03:45 1020 30.12 850 25.1 -1.1 30 78 -4.5 23.8
03:50 1020 30.12 850 25.1 -1 30.2 77 -4.6 23.7
03:55 1020 30.12 850 25.1 -1.1 29.9 77 -4.8 23.4
04:00 1020 30.12 850 25.1 -1.4 29.5 77 -4.9 23.2
04:05 1020 30.12 850 25.1 -1.6 29.2 77 -5 22.9
04:10 1021 30.15 850 25.1 -1.7 28.9 78 -5.1 22.7
04:15 1021 30.15 850 25.1 -1.8 28.7 78 -5.2 22.6
04:20 1021 30.15 850 25.1 -1.9 28.6 78 -5.3 22.5
04:25 1021 30.15 850 25.1 -1.7 28.9 77 -5.2 22.6
04:30 1021 30.15 850 25.1 -1.8 28.7 78 -5.2 22.6
04:35 1021 30.15 850 25.1 -2.1 28.2 79 -5.4 22.4
04:40 1021 30.15 850 25.1 -2.3 27.8 80 -5.4 22.3
04:45 1021 30.15 850 25.1 -2.4 27.8 80 -5.3 22.5
04:50 1021 30.15 850 25.1 -2.4 27.7 80 -5.3 22.5
04:55 1021 30.15 850 25.1 -2.2 28 81 -5.1 22.9
05:00 1020 30.12 850 25.1 -1.9 28.6 80 -4.9 23.1
05:05 1020 30.12 850 25.1 -1.6 29.2 79 -4.8 23.3
05:10 1021 30.15 850 25.1 -1.2 29.9 77 -4.7 23.5
05:15 1021 30.15 850 25.1 -0.9 30.3 75 -4.7 23.5
05:20 1020 30.12 850 25.1 -1.3 29.7 75 -5.1 22.9
05:25 1020 30.12 850 25.1 -1.5 29.3 75 -5.4 22.3
05:30 1020 30.12 850 25.1 -1.3 29.6 73 -5.5 22.1
05:35 1020 30.12 850 25.1 -1.4 29.4 74 -5.5 22.1
05:40 1020 30.12 850 25.1 -1.2 29.9 72 -5.5 22.1
05:45 1020 30.12 850 25.1 -1.2 29.8 72 -5.6 22
05:50 1020 30.12 850 25.1 -1.2 29.9 72 -5.6 21.9
05:55 1021 30.15 850 25.1 -1.5 29.4 72 -5.8 21.5
06:00 1020 30.12 850 25.1 -1.4 29.5 72 -5.8 21.5
06:05 1020 30.12 850 25.1 -1.3 29.7 72 -5.7 21.7
06:10 1020 30.12 850 25.1 -1.3 29.7 72 -5.7 21.7
06:15 1020 30.12 850 25.1 -1.5 29.3 73 -5.8 21.6
06:20 1020 30.12 850 25.1 -1.7 29 72 -6 21.2
06:25 1020 30.12 850 25.1 -1.5 29.4 72 -5.9 21.5
06:30 1020 30.12 849 25.07 -1.6 29.2 72 -5.9 21.4
06:35 1020 30.12 849 25.07 -1.7 28.9 73 -6 21.3
06:40 1020 30.12 849 25.07 -1.8 28.7 73 -6 21.2
06:45 1020 30.12 849 25.07 -1.8 28.7 73 -6 21.1
06:50 1020 30.12 849 25.07 -1.7 28.9 73 -6 21.1
06:55 1020 30.12 849 25.07 -1.8 28.8 73 -6.1 21
07:00 1020 30.12 849 25.07 -1.8 28.8 73 -6 21.1
07:05 1020 30.12 849 25.07 -1.8 28.8 72 -6.1 20.9
07:10 1020 30.12 849 25.07 -1.9 28.6 72 -6.3 20.6
07:15 1020 30.12 849 25.07 -1.8 28.8 72 -6.3 20.7
07:20 1020 30.12 849 25.07 -1.7 28.9 72 -6.2 20.9
07:25 1020 30.12 849 25.07 -1.7 28.9 71 -6.3 20.6
07:30 1020 30.12 849 25.07 -1.7 28.9 71 -6.4 20.5
07:35 1020 30.12 849 25.07 -1.8 28.7 71 -6.3 20.6
07:40 1020 30.12 849 25.07 -1.6 29.1 71 -6.2 20.9
07:45 1020 30.12 849 25.07 -1.4 29.5 70 -6.1 21
07:50 1020 30.12 849 25.07 -1.6 29.2 71 -6.2 20.8
07:55 1020 30.12 849 25.07 -1.8 28.7 71 -6.3 20.6
08:00 1020 30.12 849 25.07 -1.9 28.5 72 -6.3 20.6
08:05 1020 30.12 849 25.07 -1.9 28.6 72 -6.3 20.6
08:10 1019 30.09 849 25.07 -2 28.4 72 -6.4 20.5
08:15 1019 30.09 849 25.07 -2.1 28.2 73 -6.4 20.5
08:20 1019 30.09 848 25.04 -2.1 28.3 73 -6.3 20.7
08:25 1019 30.09 848 25.04 -1.6 29.1 72 -6.1 21
08:30 1019 30.09 848 25.04 -1 30.2 70 -5.8 21.6
08:35 1019 30.09 848 25.04 -0.6 31 69 -5.6 21.9
08:40 1019 30.09 848 25.04 -0.3 31.5 68 -5.5 22.1
08:45 1019 30.09 849 25.07 0.1 32.2 67 -5.4 22.3
08:50 1019 30.09 849 25.07 0.5 32.8 65 -5.4 22.3
08:55 1020 30.12 849 25.07 0.8 33.4 63 -5.5 22.1
09:00 1020 30.12 849 25.07 1 33.7 62 -5.5 22
09:05 1020 30.12 849 25.07 0.9 33.6 63 -5.4 22.2
09:10 1020 30.12 849 25.07 0.7 33.3 64 -5.3 22.4
09:15 1020 30.12 849 25.07 0.7 33.2 63 -5.5 22.1
09:20 1020 30.12 849 25.07 0.6 33.1 64 -5.5 22.2
09:25 1020 30.12 849 25.07 0.5 32.9 64 -5.5 22.1
09:30 1020 30.12 849 25.07 0.7 33.3 64 -5.3 22.4
09:35 1020 30.12 849 25.07 1.1 33.9 65 -4.8 23.4
09:40 1020 30.12 849 25.07 1.5 34.8 64 -4.6 23.7
09:45 1020 30.12 849 25.07 1.7 35 62 -4.9 23.2
09:50 1019 30.09 849 25.07 1.5 34.6 63 -4.9 23.2
09:55 1019 30.09 849 25.07 1.6 34.8 64 -4.5 23.9
10:00 1019 30.09 849 25.07 2 35.5 63 -4.4 24.1
10:05 1019 30.09 849 25.07 2.5 36.5 61 -4.2 24.4
10:10 1019 30.09 849 25.07 3.1 37.6 58 -4.3 24.3
10:15 1020 30.12 849 25.07 3.4 38.1 57 -4.4 24.1
10:20 1020 30.12 849 25.07 3.5 38.3 56 -4.5 23.9
10:25 1020 30.12 849 25.07 3.6 38.5 55 -4.6 23.7
10:30 1020 30.12 849 25.07 3.9 39.1 53 -4.8 23.3
10:35 1020 30.12 849 25.07 4.2 39.6 56 -3.9 25.1
10:40 1020 30.12 849 25.07 5.1 41.2 53 -3.8 25.2
10:45 1020 30.12 849 25.07 5.5 41.9 52 -3.6 25.5
10:50 1019 30.09 849 25.07 5.1 41.3 50 -4.4 24
10:55 1019 30.09 849 25.07 4.6 40.2 51 -4.8 23.4
11:00 1019 30.09 849 25.07 4.8 40.6 51 -4.6 23.8
11:05 1019 30.09 848 25.04 5 41 49 -4.8 23.4
11:10 1019 30.09 848 25.04 4.9 40.7 50 -4.8 23.3
11:15 1019 30.09 848 25.04 5 41 50 -4.7 23.6
11:20 1019 30.09 848 25.04 5.5 41.9 48 -4.7 23.5
11:25 1019 30.09 848 25.04 5.8 42.4 48 -4.3 24.2
11:30 1019 30.09 848 25.04 5.6 42.1 49 -4.4 24.1
11:35 1019 30.09 848 25.04 5.5 42 49 -4.4 24.1
11:40 1019 30.09 848 25.04 5.9 42.6 48 -4.4 24.1
11:45 1019 30.09 848 25.04 6.6 43.9 47 -3.9 25
11:50 1019 30.09 848 25.04 7.5 45.4 45 -3.6 25.5
11:55 1019 30.09 848 25.04 7.4 45.2 45 -3.7 25.4
12:00 1019 30.09 848 25.04 7.1 44.8 48 -3.2 26.3
12:05 1019 30.09 848 25.04 6.9 44.4 50 -2.7 27.1
12:10 1019 30.09 848 25.04 6.9 44.4 49 -3.1 26.5
12:15 1018 30.06 848 25.04 6.4 43.5 50 -3.3 26
12:20 1018 30.06 848 25.04 6.3 43.3 50 -3.3 26.1
12:25 1018 30.06 848 25.04 6.8 44.2 47 -3.8 25.1
12:30 1018 30.06 847 25.01 6.6 43.8 46 -4.2 24.4
12:35 1018 30.06 847 25.01 7.7 45.9 42 -4.2 24.4
12:40 1018 30.06 847 25.01 8 46.4 40 -4.8 23.3
12:45 1018 30.06 847 25.01 8.2 46.7 39 -4.9 23.2
12:50 1018 30.06 847 25.01 7.6 45.6 39 -5.4 22.3
12:55 1018 30.06 847 25.01 7 44.5 42 -5 23.1
13:00 1018 30.06 847 25.01 7.5 45.4 41 -4.9 23.2
13:05 1018 30.06 847 25.01 8.6 47.6 37 -5.3 22.4
13:10 1018 30.06 847 25.01 8 46.4 38 -5.6 21.9
13:15 1018 30.06 847 25.01 6.8 44.3 40 -5.7 21.8
13:20 1017 30.03 847 25.01 7.3 45.1 39 -5.7 21.8
13:25 1017 30.03 847 25.01 8.4 47 37 -5.6 21.9
13:30 1017 30.03 847 25.01 8.5 47.3 38 -4.9 23.2
13:35 1017 30.03 847 25.01 9.4 48.9 35 -5.4 22.3
13:40 1017 30.03 846 24.98 10.2 50.4 34 -5 22.9
13:45 1017 30.03 846 24.98 10.2 50.3 32 -5.7 21.7
13:50 1017 30.03 846 24.98 9.7 49.5 35 -5.1 22.8
13:55 1017 30.03 846 24.98 10.9 51.7 32 -5.3 22.5
14:00 1017 30.03 846 24.98 11.4 52.6 31 -5 23.1
14:05 1017 30.03 846 24.98 11.6 52.8 31 -5.1 22.8
14:10 1017 30.03 846 24.98 10.3 50.6 34 -4.9 23.2
14:15 1017 30.03 846 24.98 10 49.9 32 -5.9 21.4
14:20 1017 30.03 846 24.98 9.9 49.8 34 -5.3 22.5
14:25 1017 30.03 846 24.98 10.2 50.3 39 -3.2 26.2
14:30 1017 30.03 846 24.98 10.9 51.6 37 -3.2 26.3
14:35 1017 30.03 846 24.98 10.5 50.9 37 -3.4 25.9
14:40 1016 30 846 24.98 10.4 50.7 35 -4.3 24.3
14:45 1016 30 846 24.98 10.7 51.2 33 -5 23.1
14:50 1016 30 846 24.98 9.6 49.2 34 -5.3 22.4
14:55 1016 30 846 24.98 9.5 49 33 -6.2 20.9
15:00 1016 30 846 24.98 9.7 49.4 32 -6.1 21.1
15:05 1016 30 845 24.95 9.7 49.5 31 -6.7 20
15:10 1016 30 845 24.95 9.8 49.6 30 -6.9 19.6
15:15 1016 30 845 24.95 9.5 49.1 31 -6.9 19.6
15:20 1016 30 845 24.95 9.6 49.2 30 -6.9 19.5
15:25 1016 30 845 24.95 9.8 49.7 35 -5.1 22.9
15:30 1016 30 845 24.95 9.5 49.2 40 -3.3 26.1
15:35 1016 30 845 24.95 8.7 47.7 43 -3.1 26.5
15:40 1016 30 845 24.95 8.5 47.3 41 -3.8 25.1
15:45 1016 30 845 24.95 8.1 46.5 41 -4.2 24.4
15:50 1016 30 845 24.95 8.1 46.5 41 -4.4 24.1
15:55 1016 30 845 24.95 8.3 47 39 -4.8 23.4
16:00 1016 30 845 24.95 8.2 46.7 38 -5.2 22.6
16:05 1016 30 845 24.95 8.2 46.8 38 -5.2 22.6
16:10 1016 30 845 24.95 8.6 47.4 37 -5.3 22.5
16:15 1016 30 845 24.95 9 48.1 36 -5.4 22.3
16:20 1016 30 845 24.95 9 48.2 34 -5.9 21.3
16:25 1016 30 845 24.95 9 48.3 34 -5.9 21.5
16:30 1016 30 845 24.95 9.2 48.5 34 -5.9 21.4
16:35 1015 29.97 845 24.95 9.2 48.6 35 -5.6 22
16:40 1015 29.97 845 24.95 9.4 48.9 34 -5.7 21.8
16:45 1015 29.97 845 24.95 9.4 49 33 -6.1 21
16:50 1015 29.97 845 24.95 9.5 49.1 32 -6.2 20.8
16:55 1015 29.97 844 24.92 9.5 49 33 -5.8 21.5
17:00 1015 29.97 844 24.92 9.5 49.1 32 -6.5 20.4
17:05 1015 29.97 844 24.92 9.2 48.6 33 -6 21.2
17:10 1015 29.97 844 24.92 9.2 48.6 33 -6 21.1
17:15 1015 29.97 844 24.92 9 48.2 34 -6 21.1
17:20 1015 29.97 844 24.92 8.8 47.9 35 -5.6 21.9
17:25 1015 29.97 844 24.92 8.7 47.6 39 -4.4 24.1
17:30 1015 29.97 844 24.92 8.3 46.9 40 -4.4 24.2
17:35 1015 29.97 844 24.92 7.9 46.1 41 -4.6 23.8
17:40 1015 29.97 844 24.92 7.4 45.3 42 -4.5 23.8
17:45 1015 29.97 844 24.92 7.3 45.2 42 -4.8 23.3
17:50 1015 29.97 844 24.92 7.4 45.3 40 -5.2 22.7
17:55 1015 29.97 844 24.92 7.5 45.5 43 -4.2 24.4
18:00 1015 29.97 844 24.92 7.1 44.7 43 -4.7 23.6
18:05 1015 29.97 844 24.92 6.8 44.2 45 -4.3 24.3
18:10 1015 29.97 844 24.92 6.8 44.2 43 -4.9 23.2
18:15 1015 29.97 844 24.92 6.9 44.4 41 -5.6 21.9
18:20 1015 29.97 844 24.92 7.2 45 42 -4.9 23.1
18:25 1015 29.97 844 24.92 7.2 44.9 42 -5 22.9
18:30 1015 29.97 844 24.92 7.5 45.6 40 -5.1 22.8
18:35 1015 29.97 844 24.92 8 46.5 38 -5.6 22
18:40 1015 29.97 844 24.92 8.6 47.4 36 -5.7 21.8
18:45 1015 29.97 844 24.92 8.5 47.3 40 -4.5 24
18:50 1015 29.97 844 24.92 7.8 46.1 43 -4 24.8
18:55 1015 29.97 844 24.92 7.4 45.2 44 -3.9 24.9
19:00 1015 29.97 844 24.92 7.1 44.9 45 -4 24.8
19:05 1015 29.97 844 24.92 7 44.6 45 -4 24.8
19:10 1015 29.97 844 24.92 6.8 44.3 45 -4.1 24.6
19:15 1014 29.94 844 24.92 7.5 45.5 40 -5.3 22.5
19:20 1014 29.94 844 24.92 8.1 46.7 42 -4 24.8
19:25 1014 29.94 844 24.92 7.7 45.8 43 -4.1 24.7
19:30 1014 29.94 844 24.92 7.3 45.1 44 -4.2 24.4
19:35 1014 29.94 844 24.92 6.9 44.4 46 -4 24.8
19:40 1014 29.94 844 24.92 6.2 43.1 48 -3.9 24.9
19:45 1014 29.94 843 24.89 5.9 42.7 48 -4.3 24.3
19:50 1014 29.94 843 24.89 6.1 43 47 -4.2 24.4
19:55 1014 29.94 843 24.89 6.2 43.1 48 -4.1 24.6
20:00 1014 29.94 843 24.89 6.4 43.6 45 -4.5 23.9
20:05 1014 29.94 843 24.89 6.7 44.1 40 -6 21.2
20:10 1014 29.94 843 24.89 8.6 47.4 32 -7.4 18.7
20:15 1014 29.94 843 24.89 9.8 49.7 25 -9.3 15.2
20:20 1014 29.94 843 24.89 10.6 51.1 24 -9 15.9
20:25 1014 29.94 843 24.89 10.4 50.7 26 -8.4 16.9
20:30 1014 29.94 843 24.89 10.3 50.5 26 -8.5 16.7
20:35 1014 29.94 843 24.89 10.2 50.4 25 -8.9 15.9
20:40 1014 29.94 843 24.89 10.3 50.5 28 -7.3 18.9
20:45 1014 29.94 843 24.89 8.6 47.5 35 -6.1 21.1
20:50 1014 29.94 843 24.89 7.4 45.4 39 -5.8 21.6
20:55 1014 29.94 843 24.89 6.9 44.5 40 -5.8 21.6
21:00 1014 29.94 843 24.89 7 44.5 38 -6.3 20.6
21:05 1014 29.94 843 24.89 7.6 45.6 36 -6.7 19.9
21:10 1014 29.94 843 24.89 7.6 45.8 36 -6.4 20.5
21:15 1014 29.94 843 24.89 7.5 45.5 36 -6.5 20.2
21:20 1013 29.91 843 24.89 7.5 45.5 37 -6.3 20.7
21:25 1013 29.91 842 24.86 7.3 45.2 39 -5.9 21.4
21:30 1013 29.91 842 24.86 7.2 44.9 38 -6.2 20.8
21:35 1013 29.91 842 24.86 7.3 45.1 37 -6.3 20.6
21:40 1013 29.91 842 24.86 7.1 44.8 39 -6 21.3
21:45 1013 29.91 843 24.89 6.8 44.2 39 -6.1 21
21:50 1013 29.91 842 24.86 6.8 44.2 38 -6.4 20.5
21:55 1013 29.91 842 24.86 6.9 44.5 39 -6 21.1
22:00 1013 29.91 842 24.86 6.8 44.3 40 -5.8 21.5
22:05 1013 29.91 842 24.86 6.8 44.2 40 -6 21.2
22:10 1013 29.91 842 24.86 6.9 44.3 39 -6.1 21
22:15 1013 29.91 842 24.86 6.9 44.5 40 -5.9 21.4
22:20 1013 29.91 842 24.86 6.8 44.2 41 -5.6 21.9
22:25 1013 29.91 842 24.86 6.7 44 41 -5.5 22
22:30 1013 29.91 842 24.86 6.6 43.9 42 -5.5 22.1
22:35 1013 29.91 842 24.86 6.7 44 41 -5.7 21.8
22:40 1013 29.91 842 24.86 6.7 44.1 41 -5.7 21.7
22:45 1013 29.91 842 24.86 6.8 44.3 39 -6 21.2
22:50 1012 29.88 842 24.86 7.1 44.7 39 -6.1 21.1
22:55 1012 29.88 842 24.86 7.1 44.7 39 -6 21.2
23:00 1012 29.88 842 24.86 7 44.6 39 -6 21.3
23:05 1012 29.88 842 24.86 6.9 44.5 39 -5.9 21.3
23:10 1012 29.88 842 24.86 6.9 44.5 39 -5.9 21.3
23:15 1012 29.88 841 24.83 6.9 44.5 40 -5.9 21.4
23:20 1012 29.88 841 24.83 6.9 44.5 39 -6.1 21.1
23:25 1012 29.88 841 24.83 7 44.6 39 -6.1 21.1
23:30 1012 29.88 841 24.83 7 44.5 39 -6.1 21.1
23:35 1012 29.88 841 24.83 7 44.5 39 -6 21.3
23:40 1012 29.88 841 24.83 6.8 44.2 40 -5.9 21.3
23:45 1012 29.88 841 24.83 6.7 44 40 -5.9 21.4
23:50 1012 29.88 841 24.83 6.6 43.9 40 -5.9 21.4
23:55 1012 29.88 841 24.83 6.6 43.8 41 -5.8 21.6
24:00 1012 29.88 841 24.83 6.5 43.7 41 -5.8 21.5